Ashland, New Hampshire
Current Conditions -  °F | °C
As of 1:15 AM on Friday 28 Nov 2014 (Local Time) from K1P1 Reporting Station
Light Snow Light Snow  
Wind Chill: 26°   Ceiling: 1300
Heat Index: 26°   Visibility: 3mi
Dew Point: 26°   Wind: 3mph
Humidity: 100%   Direction: 290°WNW
Pressure: 29.99"   Gusts: NA
Location:  43.7°N, 71.63°W
Report Text: K1P1 280615Z AUTO 29003KT 3SM -SN OVC013 M03/M03 A2999 RMK AO2 T10321032
Loading
Personal Weather Stations






























Interactive Weather Map New forecast layout! Learn more

10-Day Weather Forecast

Advertisements
Track Severe Weather on mobile